sensor_id;sensor_type;location;lat;lon;timestamp;P1;durP1;ratioP1;P2;durP2;ratioP2
53299;SDS011;39187;48.476;8.310;2023-02-08T00:01:51;10.67;;;8.93;;
53299;SDS011;39187;48.476;8.310;2023-02-08T00:04:17;16.30;;;10.20;;
53299;SDS011;39187;48.476;8.310;2023-02-08T00:06:43;12.90;;;9.90;;
53299;SDS011;39187;48.476;8.310;2023-02-08T00:09:08;10.63;;;8.17;;
53299;SDS011;39187;48.476;8.310;2023-02-08T00:11:34;16.50;;;9.60;;
53299;SDS011;39187;48.476;8.310;2023-02-08T00:14:00;9.03;;;8.13;;
53299;SDS011;39187;48.476;8.310;2023-02-08T00:16:25;12.80;;;9.00;;
53299;SDS011;39187;48.476;8.310;2023-02-08T00:18:51;12.13;;;8.20;;
53299;SDS011;39187;48.476;8.310;2023-02-08T00:21:16;11.97;;;8.90;;
53299;SDS011;39187;48.476;8.310;2023-02-08T00:23:42;13.23;;;7.80;;
53299;SDS011;39187;48.476;8.310;2023-02-08T00:26:08;12.23;;;9.20;;
53299;SDS011;39187;48.476;8.310;2023-02-08T00:28:34;10.13;;;8.20;;
53299;SDS011;39187;48.476;8.310;2023-02-08T00:31:01;9.53;;;8.60;;
53299;SDS011;39187;48.476;8.310;2023-02-08T00:33:26;8.90;;;8.03;;
53299;SDS011;39187;48.476;8.310;2023-02-08T00:35:57;7.53;;;6.80;;
53299;SDS011;39187;48.476;8.310;2023-02-08T00:38:24;13.50;;;8.50;;
53299;SDS011;39187;48.476;8.310;2023-02-08T00:40:49;8.00;;;7.23;;
53299;SDS011;39187;48.476;8.310;2023-02-08T00:43:15;12.53;;;7.80;;
53299;SDS011;39187;48.476;8.310;2023-02-08T00:45:40;15.97;;;8.77;;
53299;SDS011;39187;48.476;8.310;2023-02-08T00:48:06;11.40;;;8.43;;
53299;SDS011;39187;48.476;8.310;2023-02-08T00:50:31;14.40;;;8.83;;
53299;SDS011;39187;48.476;8.310;2023-02-08T00:52:57;13.80;;;8.43;;
53299;SDS011;39187;48.476;8.310;2023-02-08T00:55:23;10.57;;;8.37;;
53299;SDS011;39187;48.476;8.310;2023-02-08T00:57:49;10.87;;;8.60;;
53299;SDS011;39187;48.476;8.310;2023-02-08T01:00:14;13.57;;;8.80;;
53299;SDS011;39187;48.476;8.310;2023-02-08T01:02:40;11.03;;;8.00;;
53299;SDS011;39187;48.476;8.310;2023-02-08T01:05:05;7.83;;;7.10;;
53299;SDS011;39187;48.476;8.310;2023-02-08T01:07:31;13.40;;;8.67;;
53299;SDS011;39187;48.476;8.310;2023-02-08T01:09:57;10.43;;;7.70;;
53299;SDS011;39187;48.476;8.310;2023-02-08T01:12:24;8.67;;;7.90;;
53299;SDS011;39187;48.476;8.310;2023-02-08T01:14:49;7.20;;;6.50;;
53299;SDS011;39187;48.476;8.310;2023-02-08T01:17:15;12.50;;;8.80;;
53299;SDS011;39187;48.476;8.310;2023-02-08T01:19:40;8.63;;;7.53;;
53299;SDS011;39187;48.476;8.310;2023-02-08T01:22:05;14.53;;;8.47;;
53299;SDS011;39187;48.476;8.310;2023-02-08T01:24:31;7.17;;;6.63;;
53299;SDS011;39187;48.476;8.310;2023-02-08T01:26:57;10.27;;;8.20;;
53299;SDS011;39187;48.476;8.310;2023-02-08T01:29:22;7.97;;;7.20;;
53299;SDS011;39187;48.476;8.310;2023-02-08T01:31:48;9.33;;;8.00;;
53299;SDS011;39187;48.476;8.310;2023-02-08T01:34:13;11.23;;;8.30;;
53299;SDS011;39187;48.476;8.310;2023-02-08T01:36:39;8.40;;;7.50;;
53299;SDS011;39187;48.476;8.310;2023-02-08T01:39:05;13.40;;;8.20;;
53299;SDS011;39187;48.476;8.310;2023-02-08T01:41:32;18.67;;;8.53;;
53299;SDS011;39187;48.476;8.310;2023-02-08T01:46:36;15.70;;;7.90;;
53299;SDS011;39187;48.476;8.310;2023-02-08T01:49:14;10.33;;;7.27;;
53299;SDS011;39187;48.476;8.310;2023-02-08T01:51:47;7.50;;;6.33;;
53299;SDS011;39187;48.476;8.310;2023-02-08T01:54:16;16.37;;;9.03;;
53299;SDS011;39187;48.476;8.310;2023-02-08T01:56:45;10.23;;;7.07;;
53299;SDS011;39187;48.476;8.310;2023-02-08T01:59:13;6.70;;;6.20;;
53299;SDS011;39187;48.476;8.310;2023-02-08T02:01:55;13.10;;;5.90;;
53299;SDS011;39187;48.476;8.310;2023-02-08T02:04:23;9.60;;;5.77;;
53299;SDS011;39187;48.476;8.310;2023-02-08T02:06:54;12.37;;;8.10;;
53299;SDS011;39187;48.476;8.310;2023-02-08T02:09:23;15.30;;;7.03;;
53299;SDS011;39187;48.476;8.310;2023-02-08T02:11:55;12.40;;;7.63;;
53299;SDS011;39187;48.476;8.310;2023-02-08T02:14:22;10.10;;;6.90;;
53299;SDS011;39187;48.476;8.310;2023-02-08T02:16:48;8.90;;;7.27;;
53299;SDS011;39187;48.476;8.310;2023-02-08T02:19:16;8.60;;;6.90;;
53299;SDS011;39187;48.476;8.310;2023-02-08T02:33:12;8.57;;;7.30;;
53299;SDS011;39187;48.476;8.310;2023-02-08T02:41:37;7.90;;;6.37;;
53299;SDS011;39187;48.476;8.310;2023-02-08T02:47:14;5.73;;;5.27;;
53299;SDS011;39187;48.476;8.310;2023-02-08T02:50:50;7.17;;;5.90;;
53299;SDS011;39187;48.476;8.310;2023-02-08T02:53:06;6.30;;;4.93;;
53299;SDS011;39187;48.476;8.310;2023-02-08T02:56:02;6.23;;;5.63;;
53299;SDS011;39187;48.476;8.310;2023-02-08T02:58:36;6.63;;;5.43;;
53299;SDS011;39187;48.476;8.310;2023-02-08T03:01:04;6.33;;;5.13;;
53299;SDS011;39187;48.476;8.310;2023-02-08T03:03:30;8.87;;;6.37;;
53299;SDS011;39187;48.476;8.310;2023-02-08T03:06:05;4.53;;;4.13;;
53299;SDS011;39187;48.476;8.310;2023-02-08T03:11:33;6.13;;;5.70;;
53299;SDS011;39187;48.476;8.310;2023-02-08T03:19:42;7.77;;;5.70;;
53299;SDS011;39187;48.476;8.310;2023-02-08T03:25:23;5.20;;;4.80;;
53299;SDS011;39187;48.476;8.310;2023-02-08T03:28:06;5.57;;;5.07;;
53299;SDS011;39187;48.476;8.310;2023-02-08T03:33:24;5.17;;;4.77;;
53299;SDS011;39187;48.476;8.310;2023-02-08T03:35:58;5.47;;;4.87;;
53299;SDS011;39187;48.476;8.310;2023-02-08T03:40:53;5.33;;;4.90;;
53299;SDS011;39187;48.476;8.310;2023-02-08T03:43:24;12.33;;;5.30;;
53299;SDS011;39187;48.476;8.310;2023-02-08T03:45:56;5.97;;;5.07;;
53299;SDS011;39187;48.476;8.310;2023-02-08T03:48:27;5.93;;;5.33;;
53299;SDS011;39187;48.476;8.310;2023-02-08T03:50:55;8.33;;;5.17;;
53299;SDS011;39187;48.476;8.310;2023-02-08T03:53:22;7.07;;;5.60;;
53299;SDS011;39187;48.476;8.310;2023-02-08T03:55:51;5.97;;;5.50;;
53299;SDS011;39187;48.476;8.310;2023-02-08T03:58:23;6.57;;;4.80;;
53299;SDS011;39187;48.476;8.310;2023-02-08T04:00:58;5.53;;;4.50;;
53299;SDS011;39187;48.476;8.310;2023-02-08T04:03:31;5.20;;;4.90;;
53299;SDS011;39187;48.476;8.310;2023-02-08T04:05:58;5.53;;;4.97;;
53299;SDS011;39187;48.476;8.310;2023-02-08T04:08:24;4.70;;;4.20;;
53299;SDS011;39187;48.476;8.310;2023-02-08T04:10:49;4.93;;;4.40;;
53299;SDS011;39187;48.476;8.310;2023-02-08T04:13:15;7.87;;;5.23;;
53299;SDS011;39187;48.476;8.310;2023-02-08T04:15:40;9.47;;;6.60;;
53299;SDS011;39187;48.476;8.310;2023-02-08T04:18:08;6.20;;;5.60;;
53299;SDS011;39187;48.476;8.310;2023-02-08T04:20:33;6.90;;;5.57;;
53299;SDS011;39187;48.476;8.310;2023-02-08T04:22:59;12.13;;;4.30;;
53299;SDS011;39187;48.476;8.310;2023-02-08T04:25:25;8.13;;;5.03;;
53299;SDS011;39187;48.476;8.310;2023-02-08T04:27:50;8.33;;;4.07;;
53299;SDS011;39187;48.476;8.310;2023-02-08T04:30:16;8.60;;;5.40;;
53299;SDS011;39187;48.476;8.310;2023-02-08T04:32:41;5.13;;;4.73;;
53299;SDS011;39187;48.476;8.310;2023-02-08T04:35:07;4.30;;;4.00;;
53299;SDS011;39187;48.476;8.310;2023-02-08T04:37:32;5.13;;;4.73;;
53299;SDS011;39187;48.476;8.310;2023-02-08T04:39:58;11.30;;;4.97;;
53299;SDS011;39187;48.476;8.310;2023-02-08T04:42:23;5.47;;;5.03;;
53299;SDS011;39187;48.476;8.310;2023-02-08T04:44:49;7.47;;;4.73;;
53299;SDS011;39187;48.476;8.310;2023-02-08T04:47:14;10.57;;;5.50;;
53299;SDS011;39187;48.476;8.310;2023-02-08T04:49:40;6.60;;;4.63;;
53299;SDS011;39187;48.476;8.310;2023-02-08T04:52:05;5.73;;;5.13;;
53299;SDS011;39187;48.476;8.310;2023-02-08T04:54:31;6.33;;;5.73;;
53299;SDS011;39187;48.476;8.310;2023-02-08T04:56:56;5.60;;;5.03;;
53299;SDS011;39187;48.476;8.310;2023-02-08T04:59:22;6.87;;;5.13;;
53299;SDS011;39187;48.476;8.310;2023-02-08T05:01:47;5.60;;;5.20;;
53299;SDS011;39187;48.476;8.310;2023-02-08T05:04:13;6.87;;;6.03;;
53299;SDS011;39187;48.476;8.310;2023-02-08T05:06:38;5.23;;;4.90;;
53299;SDS011;39187;48.476;8.310;2023-02-08T05:09:07;7.40;;;5.53;;
53299;SDS011;39187;48.476;8.310;2023-02-08T05:11:33;6.43;;;5.80;;
53299;SDS011;39187;48.476;8.310;2023-02-08T05:14:00;6.00;;;5.17;;
53299;SDS011;39187;48.476;8.310;2023-02-08T05:16:25;5.77;;;4.70;;
53299;SDS011;39187;48.476;8.310;2023-02-08T05:18:51;8.40;;;4.60;;
53299;SDS011;39187;48.476;8.310;2023-02-08T05:21:16;7.80;;;7.10;;
53299;SDS011;39187;48.476;8.310;2023-02-08T05:23:42;6.00;;;5.40;;
53299;SDS011;39187;48.476;8.310;2023-02-08T05:26:08;7.50;;;5.03;;
53299;SDS011;39187;48.476;8.310;2023-02-08T05:28:35;5.80;;;5.30;;
53299;SDS011;39187;48.476;8.310;2023-02-08T05:31:11;7.33;;;6.63;;
53299;SDS011;39187;48.476;8.310;2023-02-08T05:33:38;6.00;;;5.40;;
53299;SDS011;39187;48.476;8.310;2023-02-08T05:36:04;5.50;;;5.00;;
53299;SDS011;39187;48.476;8.310;2023-02-08T05:38:30;5.93;;;5.10;;
53299;SDS011;39187;48.476;8.310;2023-02-08T05:40:55;5.53;;;4.97;;
53299;SDS011;39187;48.476;8.310;2023-02-08T05:43:21;3.90;;;3.70;;
53299;SDS011;39187;48.476;8.310;2023-02-08T05:45:48;6.07;;;4.67;;
53299;SDS011;39187;48.476;8.310;2023-02-08T05:48:14;6.27;;;5.70;;
53299;SDS011;39187;48.476;8.310;2023-02-08T05:50:39;7.00;;;5.10;;
53299;SDS011;39187;48.476;8.310;2023-02-08T05:53:05;6.00;;;5.40;;
53299;SDS011;39187;48.476;8.310;2023-02-08T05:55:30;6.20;;;5.47;;
53299;SDS011;39187;48.476;8.310;2023-02-08T05:57:56;5.77;;;5.17;;
53299;SDS011;39187;48.476;8.310;2023-02-08T06:00:21;5.57;;;5.17;;
53299;SDS011;39187;48.476;8.310;2023-02-08T06:02:47;8.60;;;4.80;;
53299;SDS011;39187;48.476;8.310;2023-02-08T06:05:13;8.90;;;5.33;;
53299;SDS011;39187;48.476;8.310;2023-02-08T06:07:38;5.47;;;4.97;;
53299;SDS011;39187;48.476;8.310;2023-02-08T06:10:04;5.17;;;4.60;;
53299;SDS011;39187;48.476;8.310;2023-02-08T06:12:30;4.47;;;4.23;;
53299;SDS011;39187;48.476;8.310;2023-02-08T06:14:56;5.80;;;5.30;;
53299;SDS011;39187;48.476;8.310;2023-02-08T06:17:21;5.63;;;4.83;;
53299;SDS011;39187;48.476;8.310;2023-02-08T06:19:47;5.30;;;4.77;;
53299;SDS011;39187;48.476;8.310;2023-02-08T06:22:12;5.20;;;4.70;;
53299;SDS011;39187;48.476;8.310;2023-02-08T06:24:38;9.33;;;5.67;;
53299;SDS011;39187;48.476;8.310;2023-02-08T06:27:03;4.57;;;4.27;;
53299;SDS011;39187;48.476;8.310;2023-02-08T06:29:29;4.50;;;4.10;;
53299;SDS011;39187;48.476;8.310;2023-02-08T06:31:54;4.90;;;4.57;;
53299;SDS011;39187;48.476;8.310;2023-02-08T06:34:20;4.70;;;4.30;;
53299;SDS011;39187;48.476;8.310;2023-02-08T06:36:45;4.20;;;3.90;;
53299;SDS011;39187;48.476;8.310;2023-02-08T06:39:11;4.97;;;4.53;;
53299;SDS011;39187;48.476;8.310;2023-02-08T06:41:36;5.17;;;4.77;;
53299;SDS011;39187;48.476;8.310;2023-02-08T06:44:02;6.30;;;5.33;;
53299;SDS011;39187;48.476;8.310;2023-02-08T06:46:27;4.93;;;4.27;;
53299;SDS011;39187;48.476;8.310;2023-02-08T06:48:53;5.27;;;4.97;;
53299;SDS011;39187;48.476;8.310;2023-02-08T06:51:19;5.07;;;4.67;;
53299;SDS011;39187;48.476;8.310;2023-02-08T06:53:45;5.63;;;5.10;;
53299;SDS011;39187;48.476;8.310;2023-02-08T06:56:10;5.70;;;5.07;;
53299;SDS011;39187;48.476;8.310;2023-02-08T06:58:36;5.47;;;4.83;;
53299;SDS011;39187;48.476;8.310;2023-02-08T07:01:02;5.03;;;3.93;;
53299;SDS011;39187;48.476;8.310;2023-02-08T07:03:27;5.27;;;4.90;;
53299;SDS011;39187;48.476;8.310;2023-02-08T07:05:53;4.03;;;3.73;;
53299;SDS011;39187;48.476;8.310;2023-02-08T07:08:18;6.97;;;5.57;;
53299;SDS011;39187;48.476;8.310;2023-02-08T07:10:44;7.00;;;4.87;;
53299;SDS011;39187;48.476;8.310;2023-02-08T07:13:10;5.93;;;4.73;;
53299;SDS011;39187;48.476;8.310;2023-02-08T07:15:35;6.43;;;5.40;;
53299;SDS011;39187;48.476;8.310;2023-02-08T07:18:01;5.33;;;4.53;;
53299;SDS011;39187;48.476;8.310;2023-02-08T07:20:26;8.13;;;4.40;;
53299;SDS011;39187;48.476;8.310;2023-02-08T07:22:51;10.53;;;5.90;;
53299;SDS011;39187;48.476;8.310;2023-02-08T07:25:17;4.70;;;4.40;;
53299;SDS011;39187;48.476;8.310;2023-02-08T07:27:42;5.53;;;5.13;;
53299;SDS011;39187;48.476;8.310;2023-02-08T07:30:08;6.77;;;4.87;;
53299;SDS011;39187;48.476;8.310;2023-02-08T07:32:34;6.43;;;5.50;;
53299;SDS011;39187;48.476;8.310;2023-02-08T07:35:00;6.03;;;4.83;;
53299;SDS011;39187;48.476;8.310;2023-02-08T07:37:25;5.33;;;4.93;;
53299;SDS011;39187;48.476;8.310;2023-02-08T07:39:51;5.00;;;4.60;;
53299;SDS011;39187;48.476;8.310;2023-02-08T07:42:17;5.90;;;4.70;;
53299;SDS011;39187;48.476;8.310;2023-02-08T07:44:43;8.20;;;7.10;;
53299;SDS011;39187;48.476;8.310;2023-02-08T07:47:08;6.57;;;4.60;;
53299;SDS011;39187;48.476;8.310;2023-02-08T07:49:34;6.40;;;5.17;;
53299;SDS011;39187;48.476;8.310;2023-02-08T07:52:00;5.50;;;5.10;;
53299;SDS011;39187;48.476;8.310;2023-02-08T07:54:26;4.83;;;4.40;;
53299;SDS011;39187;48.476;8.310;2023-02-08T07:56:52;5.63;;;5.13;;
53299;SDS011;39187;48.476;8.310;2023-02-08T07:59:17;8.13;;;5.50;;
53299;SDS011;39187;48.476;8.310;2023-02-08T08:01:43;4.33;;;4.03;;
53299;SDS011;39187;48.476;8.310;2023-02-08T08:04:08;5.50;;;5.07;;
53299;SDS011;39187;48.476;8.310;2023-02-08T08:06:34;10.10;;;5.80;;
53299;SDS011;39187;48.476;8.310;2023-02-08T08:08:59;4.53;;;4.13;;
53299;SDS011;39187;48.476;8.310;2023-02-08T08:11:25;4.90;;;4.60;;
53299;SDS011;39187;48.476;8.310;2023-02-08T08:13:51;5.80;;;5.40;;
53299;SDS011;39187;48.476;8.310;2023-02-08T08:16:16;5.77;;;5.30;;
53299;SDS011;39187;48.476;8.310;2023-02-08T08:18:43;4.33;;;4.10;;
53299;SDS011;39187;48.476;8.310;2023-02-08T08:21:09;4.90;;;4.60;;
53299;SDS011;39187;48.476;8.310;2023-02-08T08:23:35;4.73;;;4.33;;
53299;SDS011;39187;48.476;8.310;2023-02-08T08:26:14;4.20;;;3.90;;
53299;SDS011;39187;48.476;8.310;2023-02-08T08:28:41;4.57;;;4.13;;
53299;SDS011;39187;48.476;8.310;2023-02-08T08:31:08;4.97;;;4.67;;
53299;SDS011;39187;48.476;8.310;2023-02-08T08:33:35;5.70;;;5.30;;
53299;SDS011;39187;48.476;8.310;2023-02-08T08:36:01;6.23;;;5.30;;
53299;SDS011;39187;48.476;8.310;2023-02-08T08:38:26;5.80;;;5.40;;
53299;SDS011;39187;48.476;8.310;2023-02-08T08:40:52;5.57;;;5.07;;
53299;SDS011;39187;48.476;8.310;2023-02-08T08:43:17;4.90;;;4.60;;
53299;SDS011;39187;48.476;8.310;2023-02-08T08:45:43;5.20;;;4.90;;
53299;SDS011;39187;48.476;8.310;2023-02-08T08:48:08;5.37;;;5.00;;
53299;SDS011;39187;48.476;8.310;2023-02-08T08:50:34;4.70;;;4.30;;
53299;SDS011;39187;48.476;8.310;2023-02-08T08:53:00;5.73;;;5.20;;
53299;SDS011;39187;48.476;8.310;2023-02-08T08:55:26;5.63;;;5.20;;
53299;SDS011;39187;48.476;8.310;2023-02-08T08:57:52;4.90;;;4.40;;
53299;SDS011;39187;48.476;8.310;2023-02-08T09:00:18;5.63;;;5.13;;
53299;SDS011;39187;48.476;8.310;2023-02-08T09:02:43;10.07;;;5.70;;
53299;SDS011;39187;48.476;8.310;2023-02-08T09:05:09;4.50;;;4.07;;
53299;SDS011;39187;48.476;8.310;2023-02-08T09:07:34;6.33;;;4.43;;
53299;SDS011;39187;48.476;8.310;2023-02-08T09:10:00;5.80;;;5.20;;
53299;SDS011;39187;48.476;8.310;2023-02-08T09:12:25;5.77;;;5.37;;
53299;SDS011;39187;48.476;8.310;2023-02-08T09:14:51;5.30;;;4.87;;
53299;SDS011;39187;48.476;8.310;2023-02-08T09:17:16;4.23;;;3.93;;
53299;SDS011;39187;48.476;8.310;2023-02-08T09:19:42;6.47;;;4.47;;
53299;SDS011;39187;48.476;8.310;2023-02-08T09:22:07;4.70;;;4.30;;
53299;SDS011;39187;48.476;8.310;2023-02-08T09:24:33;4.60;;;4.20;;
53299;SDS011;39187;48.476;8.310;2023-02-08T09:26:59;5.83;;;5.33;;
53299;SDS011;39187;48.476;8.310;2023-02-08T09:29:25;4.63;;;4.30;;
53299;SDS011;39187;48.476;8.310;2023-02-08T09:31:53;5.17;;;4.67;;
53299;SDS011;39187;48.476;8.310;2023-02-08T09:34:19;6.90;;;5.00;;
53299;SDS011;39187;48.476;8.310;2023-02-08T09:36:45;5.40;;;4.60;;
53299;SDS011;39187;48.476;8.310;2023-02-08T09:39:17;7.70;;;6.30;;
53299;SDS011;39187;48.476;8.310;2023-02-08T09:44:26;5.00;;;4.63;;
53299;SDS011;39187;48.476;8.310;2023-02-08T09:52:28;5.20;;;4.80;;
53299;SDS011;39187;48.476;8.310;2023-02-08T09:55:00;5.13;;;4.73;;
53299;SDS011;39187;48.476;8.310;2023-02-08T09:57:34;5.53;;;4.97;;
53299;SDS011;39187;48.476;8.310;2023-02-08T10:00:03;5.13;;;4.70;;
53299;SDS011;39187;48.476;8.310;2023-02-08T10:02:38;5.47;;;4.83;;
53299;SDS011;39187;48.476;8.310;2023-02-08T10:05:29;5.63;;;5.20;;
53299;SDS011;39187;48.476;8.310;2023-02-08T10:07:54;5.17;;;4.70;;
53299;SDS011;39187;48.476;8.310;2023-02-08T10:18:17;6.57;;;5.00;;
53299;SDS011;39187;48.476;8.310;2023-02-08T10:21:12;6.00;;;5.40;;
53299;SDS011;39187;48.476;8.310;2023-02-08T10:26:48;5.77;;;5.30;;
53299;SDS011;39187;48.476;8.310;2023-02-08T10:29:25;4.43;;;4.13;;
53299;SDS011;39187;48.476;8.310;2023-02-08T10:34:53;6.77;;;5.80;;
53299;SDS011;39187;48.476;8.310;2023-02-08T10:37:29;5.83;;;5.33;;
53299;SDS011;39187;48.476;8.310;2023-02-08T10:40:06;5.20;;;4.60;;
53299;SDS011;39187;48.476;8.310;2023-02-08T10:42:32;4.97;;;4.57;;
53299;SDS011;39187;48.476;8.310;2023-02-08T10:48:07;7.77;;;5.23;;
53299;SDS011;39187;48.476;8.310;2023-02-08T10:50:40;5.83;;;5.07;;
53299;SDS011;39187;48.476;8.310;2023-02-08T10:53:19;5.70;;;5.27;;
53299;SDS011;39187;48.476;8.310;2023-02-08T10:55:48;5.10;;;4.77;;
53299;SDS011;39187;48.476;8.310;2023-02-08T10:58:17;6.83;;;5.10;;
53299;SDS011;39187;48.476;8.310;2023-02-08T11:00:46;5.90;;;5.50;;
53299;SDS011;39187;48.476;8.310;2023-02-08T11:05:51;6.17;;;5.57;;
53299;SDS011;39187;48.476;8.310;2023-02-08T11:08:20;5.63;;;5.23;;
53299;SDS011;39187;48.476;8.310;2023-02-08T11:13:40;5.63;;;5.17;;
53299;SDS011;39187;48.476;8.310;2023-02-08T11:16:23;6.43;;;5.33;;
53299;SDS011;39187;48.476;8.310;2023-02-08T11:19:03;5.17;;;4.77;;
53299;SDS011;39187;48.476;8.310;2023-02-08T11:21:38;7.80;;;5.80;;
53299;SDS011;39187;48.476;8.310;2023-02-08T11:24:26;8.80;;;5.70;;
53299;SDS011;39187;48.476;8.310;2023-02-08T11:35:54;9.23;;;5.57;;
53299;SDS011;39187;48.476;8.310;2023-02-08T11:38:24;5.13;;;4.43;;
53299;SDS011;39187;48.476;8.310;2023-02-08T11:40:57;4.80;;;4.50;;
53299;SDS011;39187;48.476;8.310;2023-02-08T11:43:33;11.83;;;4.93;;
53299;SDS011;39187;48.476;8.310;2023-02-08T11:46:03;6.10;;;4.70;;
53299;SDS011;39187;48.476;8.310;2023-02-08T11:48:34;7.97;;;4.53;;
53299;SDS011;39187;48.476;8.310;2023-02-08T11:51:05;7.53;;;6.10;;
53299;SDS011;39187;48.476;8.310;2023-02-08T11:53:38;5.13;;;4.63;;
53299;SDS011;39187;48.476;8.310;2023-02-08T11:56:16;5.13;;;4.77;;
53299;SDS011;39187;48.476;8.310;2023-02-08T11:58:59;5.10;;;4.60;;
53299;SDS011;39187;48.476;8.310;2023-02-08T12:01:33;5.17;;;4.20;;
53299;SDS011;39187;48.476;8.310;2023-02-08T12:04:06;8.80;;;5.50;;
53299;SDS011;39187;48.476;8.310;2023-02-08T12:20:39;5.93;;;5.33;;
53299;SDS011;39187;48.476;8.310;2023-02-08T12:26:11;13.97;;;6.20;;
53299;SDS011;39187;48.476;8.310;2023-02-08T12:28:51;6.83;;;5.60;;
53299;SDS011;39187;48.476;8.310;2023-02-08T12:31:25;5.80;;;5.23;;
53299;SDS011;39187;48.476;8.310;2023-02-08T12:37:01;5.87;;;5.47;;
53299;SDS011;39187;48.476;8.310;2023-02-08T12:43:06;6.40;;;5.23;;
53299;SDS011;39187;48.476;8.310;2023-02-08T12:48:54;7.33;;;5.90;;
53299;SDS011;39187;48.476;8.310;2023-02-08T12:57:23;6.60;;;6.13;;
53299;SDS011;39187;48.476;8.310;2023-02-08T13:00:03;9.87;;;6.50;;
53299;SDS011;39187;48.476;8.310;2023-02-08T13:05:22;12.23;;;5.57;;
53299;SDS011;39187;48.476;8.310;2023-02-08T13:08:02;10.37;;;6.87;;
53299;SDS011;39187;48.476;8.310;2023-02-08T13:10:42;11.83;;;5.87;;
53299;SDS011;39187;48.476;8.310;2023-02-08T13:13:21;11.70;;;6.07;;
53299;SDS011;39187;48.476;8.310;2023-02-08T13:16:04;8.17;;;5.53;;
53299;SDS011;39187;48.476;8.310;2023-02-08T13:18:52;6.10;;;5.37;;
53299;SDS011;39187;48.476;8.310;2023-02-08T13:21:28;7.03;;;6.43;;
53299;SDS011;39187;48.476;8.310;2023-02-08T13:24:04;8.60;;;6.23;;
53299;SDS011;39187;48.476;8.310;2023-02-08T13:26:40;7.97;;;5.87;;
53299;SDS011;39187;48.476;8.310;2023-02-08T13:29:13;7.30;;;6.17;;
53299;SDS011;39187;48.476;8.310;2023-02-08T13:31:46;8.10;;;6.23;;
53299;SDS011;39187;48.476;8.310;2023-02-08T13:34:28;6.40;;;5.83;;
53299;SDS011;39187;48.476;8.310;2023-02-08T13:36:58;8.13;;;6.63;;
53299;SDS011;39187;48.476;8.310;2023-02-08T13:39:36;5.47;;;4.97;;
53299;SDS011;39187;48.476;8.310;2023-02-08T13:42:07;7.40;;;6.60;;
53299;SDS011;39187;48.476;8.310;2023-02-08T13:45:03;6.43;;;6.00;;
53299;SDS011;39187;48.476;8.310;2023-02-08T13:47:35;5.83;;;5.23;;
53299;SDS011;39187;48.476;8.310;2023-02-08T13:53:07;6.20;;;5.60;;
53299;SDS011;39187;48.476;8.310;2023-02-08T14:01:16;5.40;;;4.73;;
53299;SDS011;39187;48.476;8.310;2023-02-08T14:06:43;6.00;;;5.40;;
53299;SDS011;39187;48.476;8.310;2023-02-08T14:09:27;6.37;;;5.77;;
53299;SDS011;39187;48.476;8.310;2023-02-08T14:12:01;4.70;;;4.27;;
53299;SDS011;39187;48.476;8.310;2023-02-08T14:14:37;5.90;;;4.47;;
53299;SDS011;39187;48.476;8.310;2023-02-08T14:17:08;7.07;;;5.47;;
53299;SDS011;39187;48.476;8.310;2023-02-08T14:19:39;8.17;;;5.27;;
53299;SDS011;39187;48.476;8.310;2023-02-08T14:24:47;6.70;;;5.83;;
53299;SDS011;39187;48.476;8.310;2023-02-08T14:32:45;5.93;;;5.43;;
53299;SDS011;39187;48.476;8.310;2023-02-08T14:35:23;7.00;;;4.90;;
53299;SDS011;39187;48.476;8.310;2023-02-08T14:45:55;4.87;;;4.57;;
53299;SDS011;39187;48.476;8.310;2023-02-08T14:48:41;4.60;;;4.30;;
53299;SDS011;39187;48.476;8.310;2023-02-08T14:51:26;10.00;;;5.50;;
53299;SDS011;39187;48.476;8.310;2023-02-08T14:53:57;6.17;;;5.60;;
53299;SDS011;39187;48.476;8.310;2023-02-08T14:56:46;9.80;;;4.60;;
53299;SDS011;39187;48.476;8.310;2023-02-08T14:59:30;6.60;;;6.00;;
53299;SDS011;39187;48.476;8.310;2023-02-08T15:02:10;5.17;;;4.77;;
53299;SDS011;39187;48.476;8.310;2023-02-08T15:04:46;7.17;;;4.77;;
53299;SDS011;39187;48.476;8.310;2023-02-08T15:09:56;5.27;;;4.30;;
53299;SDS011;39187;48.476;8.310;2023-02-08T15:12:28;4.73;;;4.33;;
53299;SDS011;39187;48.476;8.310;2023-02-08T15:15:00;4.83;;;4.43;;
53299;SDS011;39187;48.476;8.310;2023-02-08T15:17:40;4.97;;;4.47;;
53299;SDS011;39187;48.476;8.310;2023-02-08T15:20:21;4.93;;;4.13;;
53299;SDS011;39187;48.476;8.310;2023-02-08T15:23:04;5.20;;;4.70;;
53299;SDS011;39187;48.476;8.310;2023-02-08T15:25:52;5.17;;;4.77;;
53299;SDS011;39187;48.476;8.310;2023-02-08T15:28:22;5.63;;;4.93;;
53299;SDS011;39187;48.476;8.310;2023-02-08T15:31:02;5.23;;;4.73;;
53299;SDS011;39187;48.476;8.310;2023-02-08T15:33:36;5.67;;;5.27;;
53299;SDS011;39187;48.476;8.310;2023-02-08T15:36:08;4.80;;;4.40;;
53299;SDS011;39187;48.476;8.310;2023-02-08T15:38:50;5.57;;;5.10;;
53299;SDS011;39187;48.476;8.310;2023-02-08T15:41:26;8.03;;;4.73;;
53299;SDS011;39187;48.476;8.310;2023-02-08T15:46:41;6.93;;;6.30;;
53299;SDS011;39187;48.476;8.310;2023-02-08T15:49:15;9.33;;;5.40;;
53299;SDS011;39187;48.476;8.310;2023-02-08T15:51:46;7.50;;;5.90;;
53299;SDS011;39187;48.476;8.310;2023-02-08T15:54:16;6.63;;;6.13;;
53299;SDS011;39187;48.476;8.310;2023-02-08T15:56:49;6.47;;;5.87;;
53299;SDS011;39187;48.476;8.310;2023-02-08T15:59:23;8.50;;;5.83;;
53299;SDS011;39187;48.476;8.310;2023-02-08T16:01:54;7.63;;;5.93;;
53299;SDS011;39187;48.476;8.310;2023-02-08T16:04:24;10.00;;;7.23;;
53299;SDS011;39187;48.476;8.310;2023-02-08T16:06:55;7.00;;;5.90;;
53299;SDS011;39187;48.476;8.310;2023-02-08T16:09:27;7.47;;;6.23;;
53299;SDS011;39187;48.476;8.310;2023-02-08T16:11:55;7.90;;;6.50;;
53299;SDS011;39187;48.476;8.310;2023-02-08T16:14:25;10.77;;;6.70;;
53299;SDS011;39187;48.476;8.310;2023-02-08T16:16:55;5.93;;;5.30;;
53299;SDS011;39187;48.476;8.310;2023-02-08T16:19:30;10.13;;;7.27;;
53299;SDS011;39187;48.476;8.310;2023-02-08T16:24:53;7.03;;;5.83;;
53299;SDS011;39187;48.476;8.310;2023-02-08T16:28:26;12.40;;;6.20;;
53299;SDS011;39187;48.476;8.310;2023-02-08T16:30:59;6.83;;;6.30;;
53299;SDS011;39187;48.476;8.310;2023-02-08T16:33:28;9.37;;;6.80;;
53299;SDS011;39187;48.476;8.310;2023-02-08T16:35:57;8.63;;;5.93;;
53299;SDS011;39187;48.476;8.310;2023-02-08T16:38:29;6.40;;;5.90;;
53299;SDS011;39187;48.476;8.310;2023-02-08T16:41:00;6.27;;;5.80;;
53299;SDS011;39187;48.476;8.310;2023-02-08T16:43:41;6.70;;;5.73;;
53299;SDS011;39187;48.476;8.310;2023-02-08T16:51:54;5.27;;;4.77;;
53299;SDS011;39187;48.476;8.310;2023-02-08T16:54:48;7.40;;;5.90;;
53299;SDS011;39187;48.476;8.310;2023-02-08T16:57:37;6.43;;;5.73;;
53299;SDS011;39187;48.476;8.310;2023-02-08T17:03:22;12.30;;;6.73;;
53299;SDS011;39187;48.476;8.310;2023-02-08T17:06:36;11.20;;;7.40;;
53299;SDS011;39187;48.476;8.310;2023-02-08T17:09:11;8.57;;;6.13;;
53299;SDS011;39187;48.476;8.310;2023-02-08T17:12:14;15.60;;;7.30;;
53299;SDS011;39187;48.476;8.310;2023-02-08T17:14:52;15.10;;;6.63;;
53299;SDS011;39187;48.476;8.310;2023-02-08T17:18:02;9.33;;;7.23;;
53299;SDS011;39187;48.476;8.310;2023-02-08T17:20:47;7.73;;;6.80;;
53299;SDS011;39187;48.476;8.310;2023-02-08T17:23:27;7.27;;;6.60;;
53299;SDS011;39187;48.476;8.310;2023-02-08T17:26:31;6.63;;;6.00;;
53299;SDS011;39187;48.476;8.310;2023-02-08T17:29:20;15.87;;;9.83;;
53299;SDS011;39187;48.476;8.310;2023-02-08T17:31:58;8.97;;;7.10;;
53299;SDS011;39187;48.476;8.310;2023-02-08T17:34:35;9.07;;;6.97;;
53299;SDS011;39187;48.476;8.310;2023-02-08T17:41:22;9.00;;;6.80;;
53299;SDS011;39187;48.476;8.310;2023-02-08T17:44:08;6.80;;;6.20;;
53299;SDS011;39187;48.476;8.310;2023-02-08T17:46:46;11.33;;;8.20;;
53299;SDS011;39187;48.476;8.310;2023-02-08T17:49:27;8.63;;;7.40;;
53299;SDS011;39187;48.476;8.310;2023-02-08T17:54:53;12.40;;;7.57;;